Terminal Aerodrome Forecast
Issued by NWS

Home | Current Version | Previous Version | Text Only | Print | Product List | Glossary On
Versions: 1 2 3 4 5 6 7 8 9 10 11 12 13 14 15 16 17 18 19 20 21 22 23 24 25 26 27 28 29 30
008
FTUS46 KSEW 181120
TAFPAE
TAF
KPAE 181120Z 1812/1912 17005KT P6SM OVC080
     FM181600 16012KT P6SM FEW025 OVC050
     FM190200 18014KT P6SM -RA BKN025 OVC045
     FM190500 18014KT P6SM -RA OVC015=

USA.gov is the U.S. government's official web portal to all federal, state and local government web resources and services.